Time;durP1;ratioP1;P1;durP2;ratioP2;P2;SDS_P1;SDS_P2;PMS_P1;PMS_P2;Temp;Humidity;BMP_temperature;BMP_pressure;BME280_temperature;BME280_humidity;BME280_pressure;Samples;Min_cycle;Max_cycle;Signal;HPM_P1;HPM_P2
2021/08/04 00:01:12;;;;;;;11.32;5.78;;;;;;;;;;5054893;28;20066;-63
2021/08/04 00:03:38;;;;;;;9.73;5.90;;;;;;;;;;5046431;28;20047;-63
2021/08/04 00:06:04;;;;;;;10.00;6.68;;;;;;;;;;5057697;28;20039;-63
2021/08/04 00:08:30;;;;;;;9.68;5.65;;;;;;;;;;5057769;28;20029;-63
2021/08/04 00:10:56;;;;;;;12.52;5.85;;;;;;;;;;5057792;28;20029;-63
2021/08/04 00:13:22;;;;;;;10.57;7.60;;;;;;;;;;5051604;28;20107;-63
2021/08/04 00:15:48;;;;;;;10.13;6.57;;;;;;;;;;5066734;28;20033;-63
2021/08/04 00:18:14;;;;;;;11.73;6.35;;;;;;;;;;5059727;28;20029;-63
2021/08/04 00:20:41;;;;;;;18.17;6.97;;;;;;;;;;5053360;28;20032;-63
2021/08/04 00:23:07;;;;;;;12.77;6.50;;;;;;;;;;5057474;28;20163;-63
2021/08/04 00:25:33;;;;;;;12.68;6.50;;;;;;;;;;5061581;28;20488;-63
2021/08/04 00:27:59;;;;;;;9.80;6.72;;;;;;;;;;5059017;28;20078;-63
2021/08/04 00:30:25;;;;;;;12.50;6.90;;;;;;;;;;5057642;28;20072;-63
2021/08/04 00:32:54;;;;;;;10.88;6.95;;;;;;;;;;5060935;28;20036;-64
2021/08/04 00:35:20;;;;;;;10.75;7.38;;;;;;;;;;5048520;28;20098;-64
2021/08/04 00:37:46;;;;;;;14.10;6.95;;;;;;;;;;5060333;28;20329;-63
2021/08/04 00:40:12;;;;;;;13.05;6.50;;;;;;;;;;5054727;28;20055;-63
2021/08/04 00:42:38;;;;;;;12.30;7.22;;;;;;;;;;5058304;28;20028;-63
2021/08/04 00:45:05;;;;;;;10.57;6.90;;;;;;;;;;5056208;28;20029;-63
2021/08/04 00:47:31;;;;;;;11.75;7.32;;;;;;;;;;5056702;28;20029;-63
2021/08/04 00:49:57;;;;;;;11.40;6.97;;;;;;;;;;5056224;28;21834;-63
2021/08/04 00:52:23;;;;;;;13.02;6.93;;;;;;;;;;5058884;28;20067;-63
2021/08/04 00:54:49;;;;;;;11.48;7.45;;;;;;;;;;5053594;28;20032;-63
2021/08/04 00:57:16;;;;;;;10.68;7.32;;;;;;;;;;5058411;28;20049;-63
2021/08/04 00:59:42;;;;;;;11.85;7.15;;;;;;;;;;5058977;28;20070;-63
2021/08/04 01:02:08;;;;;;;12.10;6.72;;;;;;;;;;5056218;28;20020;-63
2021/08/04 01:04:39;;;;;;;12.43;7.05;;;;;;;;;;5053179;28;20039;-63
2021/08/04 01:07:11;;;;;;;12.82;7.07;;;;;;;;;;5057923;28;20068;-63
2021/08/04 01:09:40;;;;;;;11.20;6.85;;;;;;;;;;5058321;28;20048;-63
2021/08/04 01:12:06;;;;;;;10.43;6.47;;;;;;;;;;5055950;28;20079;-63
2021/08/04 01:14:35;;;;;;;12.57;6.90;;;;;;;;;;5047796;28;20027;-63
2021/08/04 01:17:02;;;;;;;10.93;7.00;;;;;;;;;;5056187;28;20037;-63
2021/08/04 01:19:34;;;;;;;12.50;6.53;;;;;;;;;;5050045;28;20553;-63
2021/08/04 01:22:15;;;;;;;10.35;6.38;;;;;;;;;;5055844;28;20025;-63
2021/08/04 01:24:41;;;;;;;10.15;5.93;;;;;;;;;;5053100;28;20167;-63
2021/08/04 01:27:12;;;;;;;10.25;6.18;;;;;;;;;;5058825;28;20535;-63
2021/08/04 01:29:38;;;;;;;10.27;6.85;;;;;;;;;;5054222;28;20041;-64
2021/08/04 01:32:05;;;;;;;12.38;7.13;;;;;;;;;;5048348;28;20021;-63
2021/08/04 01:34:35;;;;;;;9.45;6.18;;;;;;;;;;5044158;28;20029;-63
2021/08/04 01:37:02;;;;;;;9.68;6.15;;;;;;;;;;5053559;28;20048;-63
2021/08/04 01:39:28;;;;;;;9.55;6.57;;;;;;;;;;5058341;28;20037;-63
2021/08/04 01:41:56;;;;;;;8.95;6.45;;;;;;;;;;5056027;28;20094;-64
2021/08/04 01:44:22;;;;;;;11.70;6.90;;;;;;;;;;5055274;28;20009;-63
2021/08/04 01:46:49;;;;;;;13.68;6.07;;;;;;;;;;5056105;28;20488;-64
2021/08/04 01:49:15;;;;;;;9.15;6.35;;;;;;;;;;5061571;28;20574;-64
2021/08/04 01:51:44;;;;;;;10.60;7.07;;;;;;;;;;5062532;28;20029;-63
2021/08/04 01:54:10;;;;;;;13.82;7.63;;;;;;;;;;5058218;28;20029;-63
2021/08/04 01:56:36;;;;;;;13.30;7.60;;;;;;;;;;5061358;28;20565;-63
2021/08/04 01:59:03;;;;;;;11.75;6.75;;;;;;;;;;5062700;28;20108;-64
2021/08/04 02:01:29;;;;;;;12.57;7.78;;;;;;;;;;5058906;28;20508;-63
2021/08/04 02:03:55;;;;;;;11.45;7.50;;;;;;;;;;5056960;28;20052;-64
2021/08/04 02:06:26;;;;;;;12.18;8.05;;;;;;;;;;5056780;28;20017;-63
2021/08/04 02:09:04;;;;;;;11.80;7.23;;;;;;;;;;5060700;28;20071;-64
2021/08/04 02:11:50;;;;;;;12.25;6.85;;;;;;;;;;5060152;28;20269;-64
2021/08/04 02:14:27;;;;;;;12.15;7.68;;;;;;;;;;5060043;28;20539;-64
2021/08/04 02:17:07;;;;;;;11.98;8.32;;;;;;;;;;5056837;28;20029;-64
2021/08/04 02:19:52;;;;;;;15.05;8.80;;;;;;;;;;5057690;28;20070;-64
2021/08/04 02:22:30;;;;;;;14.13;8.68;;;;;;;;;;5054996;28;20020;-64
2021/08/04 02:25:04;;;;;;;12.32;7.80;;;;;;;;;;5056491;28;20504;-63
2021/08/04 02:27:31;;;;;;;15.18;7.75;;;;;;;;;;5059687;28;20028;-63
2021/08/04 02:29:58;;;;;;;14.02;8.15;;;;;;;;;;5062473;28;20028;-63
2021/08/04 02:32:25;;;;;;;13.90;6.85;;;;;;;;;;5058646;28;20043;-63
2021/08/04 02:34:51;;;;;;;12.35;7.78;;;;;;;;;;5057613;28;20025;-64
2021/08/04 02:37:17;;;;;;;12.73;8.32;;;;;;;;;;5059941;28;20040;-65
2021/08/04 02:39:43;;;;;;;15.50;9.05;;;;;;;;;;5057889;28;20039;-64
2021/08/04 02:42:09;;;;;;;15.10;9.52;;;;;;;;;;5062866;28;20020;-64
2021/08/04 02:44:36;;;;;;;15.05;9.25;;;;;;;;;;5056393;28;20571;-64
2021/08/04 02:47:02;;;;;;;16.38;9.00;;;;;;;;;;5053762;28;20055;-64
2021/08/04 02:49:28;;;;;;;13.98;7.75;;;;;;;;;;5062133;28;20039;-64
2021/08/04 02:51:55;;;;;;;13.00;7.68;;;;;;;;;;5058416;28;20052;-63
2021/08/04 02:54:21;;;;;;;11.18;7.00;;;;;;;;;;5059650;28;20023;-64
2021/08/04 02:56:47;;;;;;;14.07;6.85;;;;;;;;;;5056480;28;20035;-64
2021/08/04 02:59:14;;;;;;;10.73;7.22;;;;;;;;;;5059164;28;20040;-64
2021/08/04 03:01:40;;;;;;;11.35;7.72;;;;;;;;;;5063054;28;20021;-64
2021/08/04 03:04:06;;;;;;;11.82;7.28;;;;;;;;;;5054005;28;20029;-64
2021/08/04 03:06:32;;;;;;;15.60;8.30;;;;;;;;;;5059877;28;20025;-63
2021/08/04 03:08:58;;;;;;;15.82;9.73;;;;;;;;;;5057198;28;20028;-63
2021/08/04 03:11:24;;;;;;;14.20;7.93;;;;;;;;;;5058127;28;20324;-64
2021/08/04 03:13:50;;;;;;;12.52;7.78;;;;;;;;;;5059230;28;20240;-64
2021/08/04 03:16:16;;;;;;;13.25;8.25;;;;;;;;;;5057194;28;20040;-64
2021/08/04 03:18:42;;;;;;;14.20;8.95;;;;;;;;;;5056728;28;20025;-64
2021/08/04 03:21:08;;;;;;;16.08;8.77;;;;;;;;;;5059984;28;20154;-64
2021/08/04 03:23:34;;;;;;;14.18;8.45;;;;;;;;;;5058985;28;20304;-64
2021/08/04 03:26:00;;;;;;;11.30;7.25;;;;;;;;;;5054688;28;20029;-64
2021/08/04 03:28:26;;;;;;;12.77;7.40;;;;;;;;;;5060666;28;20029;-64
2021/08/04 03:30:52;;;;;;;17.48;9.90;;;;;;;;;;5060147;28;20021;-63
2021/08/04 03:33:18;;;;;;;15.15;9.35;;;;;;;;;;5056698;28;20052;-63
2021/08/04 03:35:44;;;;;;;15.15;8.95;;;;;;;;;;5054207;28;20709;-64
2021/08/04 03:38:10;;;;;;;15.93;9.30;;;;;;;;;;5061099;28;20060;-64
2021/08/04 03:40:36;;;;;;;15.63;9.50;;;;;;;;;;5057178;28;20021;-63
2021/08/04 03:43:02;;;;;;;16.17;9.85;;;;;;;;;;5060523;28;20012;-63
2021/08/04 03:45:28;;;;;;;18.20;10.63;;;;;;;;;;5058099;28;20021;-64
2021/08/04 03:47:54;;;;;;;22.70;11.85;;;;;;;;;;5059646;28;20039;-64
2021/08/04 03:50:21;;;;;;;24.52;14.90;;;;;;;;;;5058902;28;20044;-63
2021/08/04 03:52:47;;;;;;;24.67;14.27;;;;;;;;;;5061219;28;20040;-64
2021/08/04 03:55:13;;;;;;;20.13;12.73;;;;;;;;;;5056760;28;20045;-63
2021/08/04 03:57:40;;;;;;;25.83;15.35;;;;;;;;;;5059331;28;20016;-64
2021/08/04 04:00:06;;;;;;;25.38;15.05;;;;;;;;;;5057518;28;20383;-64
2021/08/04 04:02:32;;;;;;;24.50;14.40;;;;;;;;;;5057691;28;20024;-64
2021/08/04 04:04:58;;;;;;;21.63;14.32;;;;;;;;;;5053455;28;20017;-64
2021/08/04 04:07:24;;;;;;;22.73;12.13;;;;;;;;;;5057747;28;20044;-64
2021/08/04 04:09:50;;;;;;;22.05;12.88;;;;;;;;;;5059045;28;20037;-64
2021/08/04 04:12:16;;;;;;;21.98;13.88;;;;;;;;;;5058297;28;20033;-64
2021/08/04 04:14:42;;;;;;;23.80;14.82;;;;;;;;;;5055963;28;20029;-64
2021/08/04 04:17:08;;;;;;;29.48;15.68;;;;;;;;;;5055091;28;20039;-64
2021/08/04 04:19:34;;;;;;;30.60;17.40;;;;;;;;;;5057704;28;20033;-65
2021/08/04 04:22:00;;;;;;;27.90;15.90;;;;;;;;;;5053402;28;20033;-64
2021/08/04 04:24:26;;;;;;;25.40;15.68;;;;;;;;;;5058404;28;20094;-64
2021/08/04 04:26:52;;;;;;;25.85;14.85;;;;;;;;;;5056130;28;20052;-64
2021/08/04 04:29:18;;;;;;;27.70;16.27;;;;;;;;;;5055240;28;20110;-64
2021/08/04 04:31:44;;;;;;;31.33;17.33;;;;;;;;;;5050538;28;20040;-64
2021/08/04 04:34:10;;;;;;;29.02;16.88;;;;;;;;;;5047211;28;20029;-64
2021/08/04 04:36:36;;;;;;;29.42;17.05;;;;;;;;;;5042280;28;20044;-64
2021/08/04 04:39:03;;;;;;;27.15;17.02;;;;;;;;;;5049294;28;20025;-64
2021/08/04 04:41:29;;;;;;;32.78;19.45;;;;;;;;;;5047785;28;20075;-64
2021/08/04 04:43:55;;;;;;;34.42;19.33;;;;;;;;;;5046646;28;20025;-65
2021/08/04 04:46:21;;;;;;;38.13;22.17;;;;;;;;;;5045691;28;20419;-64
2021/08/04 04:48:47;;;;;;;32.30;20.05;;;;;;;;;;5050371;28;20048;-64
2021/08/04 04:51:13;;;;;;;27.00;17.13;;;;;;;;;;5049646;28;20032;-64
2021/08/04 04:53:39;;;;;;;33.17;18.42;;;;;;;;;;5047653;28;20757;-64
2021/08/04 04:56:05;;;;;;;30.52;18.80;;;;;;;;;;5047036;28;20508;-64
2021/08/04 04:58:31;;;;;;;28.83;17.30;;;;;;;;;;5049841;28;20497;-64
2021/08/04 05:00:57;;;;;;;32.08;19.20;;;;;;;;;;5053574;28;20044;-64
2021/08/04 05:03:23;;;;;;;30.70;19.25;;;;;;;;;;5054469;28;20123;-64
2021/08/04 05:05:49;;;;;;;30.90;19.83;;;;;;;;;;5036906;28;20496;-64
2021/08/04 05:08:15;;;;;;;33.20;20.70;;;;;;;;;;5047333;28;20167;-64
2021/08/04 05:10:41;;;;;;;29.35;19.50;;;;;;;;;;5049313;28;20036;-64
2021/08/04 05:13:07;;;;;;;31.05;18.67;;;;;;;;;;5047903;28;20029;-64
2021/08/04 05:15:33;;;;;;;34.08;20.55;;;;;;;;;;5044946;28;20028;-64
2021/08/04 05:18:00;;;;;;;34.03;19.55;;;;;;;;;;5048252;28;20480;-64
2021/08/04 05:20:26;;;;;;;33.88;22.25;;;;;;;;;;5048543;28;20021;-64
2021/08/04 05:22:52;;;;;;;32.83;19.50;;;;;;;;;;5046891;28;20029;-64
2021/08/04 05:25:18;;;;;;;30.45;18.60;;;;;;;;;;5046772;28;20025;-64
2021/08/04 05:27:44;;;;;;;33.45;20.23;;;;;;;;;;5048196;28;20051;-64
2021/08/04 05:30:12;;;;;;;35.67;22.23;;;;;;;;;;5047235;28;20036;-64
2021/08/04 05:32:39;;;;;;;33.42;22.17;;;;;;;;;;5048841;28;20031;-64
2021/08/04 05:35:05;;;;;;;34.63;22.02;;;;;;;;;;5045108;28;20029;-64
2021/08/04 05:37:31;;;;;;;34.55;20.98;;;;;;;;;;5048529;28;20065;-64
2021/08/04 05:39:57;;;;;;;35.28;20.63;;;;;;;;;;5046245;28;20078;-64
2021/08/04 05:42:23;;;;;;;41.15;20.80;;;;;;;;;;5049907;28;20025;-64
2021/08/04 05:44:49;;;;;;;36.90;21.95;;;;;;;;;;5044873;28;20040;-64
2021/08/04 05:47:16;;;;;;;44.92;23.63;;;;;;;;;;5045564;28;20031;-64
2021/08/04 05:49:42;;;;;;;43.47;26.95;;;;;;;;;;5046813;28;20036;-64
2021/08/04 05:52:08;;;;;;;50.75;32.22;;;;;;;;;;5049280;28;20033;-64
2021/08/04 05:54:34;;;;;;;50.05;31.10;;;;;;;;;;5043379;28;20029;-64
2021/08/04 05:57:01;;;;;;;55.42;32.30;;;;;;;;;;5046351;28;20052;-64
2021/08/04 05:59:27;;;;;;;60.75;36.03;;;;;;;;;;5049162;28;20029;-64
2021/08/04 06:01:53;;;;;;;59.22;35.05;;;;;;;;;;5046400;28;20033;-64
2021/08/04 06:04:19;;;;;;;70.47;41.47;;;;;;;;;;5046565;28;20302;-64
2021/08/04 06:06:45;;;;;;;85.20;46.90;;;;;;;;;;5047489;28;20284;-64
2021/08/04 06:09:11;;;;;;;90.95;48.17;;;;;;;;;;5049461;28;20389;-64
2021/08/04 06:11:37;;;;;;;77.40;44.50;;;;;;;;;;5048929;28;20501;-64
2021/08/04 06:14:03;;;;;;;85.32;49.35;;;;;;;;;;5046326;28;20036;-64
2021/08/04 06:16:29;;;;;;;87.97;52.78;;;;;;;;;;5046842;28;20032;-64
2021/08/04 06:18:56;;;;;;;85.22;51.38;;;;;;;;;;5048750;28;20039;-64
2021/08/04 06:21:22;;;;;;;83.88;51.13;;;;;;;;;;5049553;28;20025;-64
2021/08/04 06:23:48;;;;;;;93.50;54.42;;;;;;;;;;5047159;28;20080;-64
2021/08/04 06:26:15;;;;;;;100.55;56.85;;;;;;;;;;5045390;28;20025;-64
2021/08/04 06:28:42;;;;;;;94.60;55.72;;;;;;;;;;5047273;28;20033;-64
2021/08/04 06:31:08;;;;;;;92.07;53.90;;;;;;;;;;5049167;28;20036;-64
2021/08/04 06:33:34;;;;;;;102.93;56.63;;;;;;;;;;5049362;28;20033;-64
2021/08/04 06:36:00;;;;;;;92.32;56.33;;;;;;;;;;5047634;28;20032;-64
2021/08/04 06:38:26;;;;;;;87.60;56.05;;;;;;;;;;5051934;28;20037;-64
2021/08/04 06:40:52;;;;;;;89.47;55.90;;;;;;;;;;5052728;28;20020;-64
2021/08/04 06:43:18;;;;;;;94.75;56.35;;;;;;;;;;5051316;28;20036;-64
2021/08/04 06:45:44;;;;;;;88.25;52.63;;;;;;;;;;5046456;28;20025;-64
2021/08/04 06:48:10;;;;;;;81.97;50.15;;;;;;;;;;5049406;28;20032;-64
2021/08/04 06:50:37;;;;;;;71.82;48.58;;;;;;;;;;5049143;28;20036;-64
2021/08/04 06:53:03;;;;;;;68.85;43.45;;;;;;;;;;5047072;28;20451;-64
2021/08/04 06:55:29;;;;;;;70.75;45.08;;;;;;;;;;5044699;28;20516;-64
2021/08/04 06:57:55;;;;;;;62.13;39.13;;;;;;;;;;5046482;28;20459;-64
2021/08/04 07:00:21;;;;;;;59.20;38.65;;;;;;;;;;5044421;28;20040;-64
2021/08/04 07:02:50;;;;;;;45.30;28.88;;;;;;;;;;5045165;28;20055;-64
2021/08/04 07:05:17;;;;;;;49.17;30.52;;;;;;;;;;5044224;28;20044;-64
2021/08/04 07:07:43;;;;;;;36.70;25.75;;;;;;;;;;5050968;28;20071;-64
2021/08/04 07:10:10;;;;;;;35.92;22.15;;;;;;;;;;5050807;28;20063;-64
2021/08/04 07:12:36;;;;;;;30.17;21.15;;;;;;;;;;5048682;28;20037;-64
2021/08/04 07:15:02;;;;;;;25.95;18.73;;;;;;;;;;5045244;28;20060;-64
2021/08/04 07:17:28;;;;;;;30.92;17.98;;;;;;;;;;5044276;28;20516;-64
2021/08/04 07:19:54;;;;;;;25.58;15.07;;;;;;;;;;5050141;28;20052;-63
2021/08/04 07:22:20;;;;;;;20.58;12.63;;;;;;;;;;5050752;28;20033;-64
2021/08/04 07:24:46;;;;;;;17.38;10.25;;;;;;;;;;5045918;28;20021;-63
2021/08/04 07:27:12;;;;;;;14.25;9.35;;;;;;;;;;5046658;28;20040;-64
2021/08/04 07:29:38;;;;;;;13.75;8.95;;;;;;;;;;5049018;28;20021;-64
2021/08/04 07:32:04;;;;;;;14.13;8.75;;;;;;;;;;5041722;28;20064;-64
2021/08/04 07:34:30;;;;;;;13.18;7.32;;;;;;;;;;5044572;28;20112;-63
2021/08/04 07:36:56;;;;;;;10.20;6.43;;;;;;;;;;5042227;28;20032;-64
2021/08/04 07:39:24;;;;;;;11.73;6.30;;;;;;;;;;5041429;28;20136;-63
2021/08/04 07:41:50;;;;;;;16.33;6.68;;;;;;;;;;5042623;28;20029;-63
2021/08/04 07:44:16;;;;;;;14.80;6.72;;;;;;;;;;5039768;28;20025;-63
2021/08/04 07:46:42;;;;;;;11.70;5.97;;;;;;;;;;5048165;28;20032;-64
2021/08/04 07:49:08;;;;;;;13.25;6.65;;;;;;;;;;5049865;28;20048;-63
2021/08/04 07:51:34;;;;;;;13.63;5.47;;;;;;;;;;5048510;28;20529;-64
2021/08/04 07:54:00;;;;;;;12.27;6.57;;;;;;;;;;5045592;28;20505;-63
2021/08/04 07:56:26;;;;;;;11.93;5.50;;;;;;;;;;5044518;28;20079;-63
2021/08/04 07:58:53;;;;;;;12.70;6.03;;;;;;;;;;5048505;28;20051;-64
2021/08/04 08:01:19;;;;;;;9.68;5.95;;;;;;;;;;5050737;28;20032;-63
2021/08/04 08:03:46;;;;;;;17.17;6.95;;;;;;;;;;5048848;28;20029;-64
2021/08/04 08:06:12;;;;;;;8.82;5.78;;;;;;;;;;5041719;28;20025;-63
2021/08/04 08:08:38;;;;;;;10.75;5.40;;;;;;;;;;5050948;28;20035;-63
2021/08/04 08:11:04;;;;;;;11.30;5.28;;;;;;;;;;5049532;28;20040;-63
2021/08/04 08:13:31;;;;;;;9.50;5.10;;;;;;;;;;5046084;28;20017;-63
2021/08/04 08:15:57;;;;;;;13.13;5.75;;;;;;;;;;5043495;28;20036;-63
2021/08/04 08:18:23;;;;;;;9.80;5.78;;;;;;;;;;5048257;28;20028;-63
2021/08/04 08:20:49;;;;;;;9.50;5.40;;;;;;;;;;5049349;28;20037;-64
2021/08/04 08:23:15;;;;;;;8.93;5.05;;;;;;;;;;5051111;28;20029;-63
2021/08/04 08:25:41;;;;;;;8.05;4.90;;;;;;;;;;5047030;28;20036;-63
2021/08/04 08:28:08;;;;;;;8.35;4.75;;;;;;;;;;5047543;28;20029;-63
2021/08/04 08:30:35;;;;;;;11.68;5.13;;;;;;;;;;5046521;28;21815;-64
2021/08/04 08:33:01;;;;;;;8.40;4.43;;;;;;;;;;5054187;28;20485;-63
2021/08/04 08:35:30;;;;;;;7.15;4.25;;;;;;;;;;5043334;28;20037;-62
2021/08/04 08:37:56;;;;;;;9.20;5.03;;;;;;;;;;5048910;28;20504;-64
2021/08/04 08:40:22;;;;;;;10.20;4.47;;;;;;;;;;5050599;28;20306;-63
2021/08/04 08:42:48;;;;;;;7.25;4.45;;;;;;;;;;5045421;28;20029;-63
2021/08/04 08:45:14;;;;;;;7.10;4.35;;;;;;;;;;5037139;28;20040;-63
2021/08/04 08:47:41;;;;;;;9.95;5.60;;;;;;;;;;5038443;28;20033;-63
2021/08/04 08:50:07;;;;;;;12.15;6.30;;;;;;;;;;5040245;28;20039;-63
2021/08/04 08:52:33;;;;;;;11.35;6.20;;;;;;;;;;5042367;28;20413;-63
2021/08/04 08:55:01;;;;;;;9.85;5.75;;;;;;;;;;5042450;28;20029;-63
2021/08/04 08:57:27;;;;;;;11.50;6.75;;;;;;;;;;5043055;28;20643;-63
2021/08/04 08:59:57;;;;;;;12.55;6.40;;;;;;;;;;5041113;28;20491;-64
2021/08/04 09:02:23;;;;;;;14.25;8.25;;;;;;;;;;5040433;28;20531;-62
2021/08/04 09:04:58;;;;;;;11.20;6.57;;;;;;;;;;5038055;28;20017;-63
2021/08/04 09:07:34;;;;;;;12.27;7.38;;;;;;;;;;5039377;28;20155;-64
2021/08/04 09:10:01;;;;;;;10.52;5.88;;;;;;;;;;5042491;28;20408;-63
2021/08/04 09:12:27;;;;;;;13.23;6.32;;;;;;;;;;5040488;28;20033;-64
2021/08/04 09:14:53;;;;;;;12.32;6.45;;;;;;;;;;5044950;28;20448;-63
2021/08/04 09:17:19;;;;;;;8.70;4.70;;;;;;;;;;5050424;28;20017;-63
2021/08/04 09:19:47;;;;;;;10.02;5.55;;;;;;;;;;5047731;28;20028;-63
2021/08/04 09:22:15;;;;;;;10.57;5.25;;;;;;;;;;5046762;28;20024;-64
2021/08/04 09:25:00;;;;;;;10.90;5.90;;;;;;;;;;5036366;28;20087;-64
2021/08/04 09:27:39;;;;;;;7.85;5.22;;;;;;;;;;5039713;28;20087;-63
2021/08/04 09:30:05;;;;;;;7.90;4.57;;;;;;;;;;5042358;28;20032;-63
2021/08/04 09:32:31;;;;;;;15.30;6.50;;;;;;;;;;5039623;28;20033;-63
2021/08/04 09:35:06;;;;;;;10.43;5.20;;;;;;;;;;5033313;28;20041;-64
2021/08/04 09:37:32;;;;;;;8.80;4.93;;;;;;;;;;5040754;28;20052;-63
2021/08/04 09:39:59;;;;;;;12.82;5.28;;;;;;;;;;5040944;28;20112;-63
2021/08/04 09:42:41;;;;;;;9.90;5.43;;;;;;;;;;5041228;28;20052;-64
2021/08/04 09:45:07;;;;;;;8.18;5.00;;;;;;;;;;5037359;28;20025;-64
2021/08/04 09:47:33;;;;;;;11.80;5.55;;;;;;;;;;5040245;28;20021;-63
2021/08/04 09:50:01;;;;;;;10.13;5.78;;;;;;;;;;5040524;28;20079;-63
2021/08/04 09:52:30;;;;;;;10.65;5.32;;;;;;;;;;5037610;28;20067;-63
2021/08/04 09:55:09;;;;;;;12.02;5.30;;;;;;;;;;5031723;28;20029;-63
2021/08/04 09:57:46;;;;;;;9.57;5.25;;;;;;;;;;5040064;28;20112;-63
2021/08/04 10:00:16;;;;;;;8.35;4.90;;;;;;;;;;5037493;28;20021;-63
2021/08/04 10:02:44;;;;;;;11.13;5.57;;;;;;;;;;5041749;28;20028;-63
2021/08/04 10:05:28;;;;;;;11.00;5.63;;;;;;;;;;5042237;28;20033;-63
2021/08/04 10:08:01;;;;;;;10.30;6.28;;;;;;;;;;5037065;28;20046;-62
2021/08/04 10:10:27;;;;;;;11.40;6.50;;;;;;;;;;5042179;28;20045;-63
2021/08/04 10:12:55;;;;;;;10.23;6.03;;;;;;;;;;5045323;28;20431;-64
2021/08/04 10:15:21;;;;;;;10.00;6.13;;;;;;;;;;5045008;28;20111;-63
2021/08/04 10:17:47;;;;;;;10.93;8.00;;;;;;;;;;5045358;28;20025;-63
2021/08/04 10:20:13;;;;;;;13.82;7.35;;;;;;;;;;5043137;28;20098;-63
2021/08/04 10:22:40;;;;;;;15.63;8.65;;;;;;;;;;5043393;28;20024;-63
2021/08/04 10:25:07;;;;;;;11.68;6.63;;;;;;;;;;5040126;28;20033;-63
2021/08/04 10:27:34;;;;;;;14.00;8.95;;;;;;;;;;5039416;28;20124;-63
2021/08/04 10:30:00;;;;;;;17.80;10.48;;;;;;;;;;5044252;28;20404;-63
2021/08/04 10:32:28;;;;;;;17.08;10.93;;;;;;;;;;5045413;28;20507;-63
2021/08/04 10:34:56;;;;;;;17.02;10.68;;;;;;;;;;5043633;28;20438;-63
2021/08/04 10:37:22;;;;;;;17.63;12.07;;;;;;;;;;5042101;28;20513;-63
2021/08/04 10:39:49;;;;;;;19.58;11.85;;;;;;;;;;5043041;28;20033;-63
2021/08/04 10:42:15;;;;;;;21.65;11.80;;;;;;;;;;5044184;28;20025;-63
2021/08/04 10:44:43;;;;;;;14.98;10.45;;;;;;;;;;5042499;28;20017;-63
2021/08/04 10:47:25;;;;;;;14.40;9.63;;;;;;;;;;5044627;28;20086;-64
2021/08/04 10:50:08;;;;;;;15.32;10.40;;;;;;;;;;5043376;28;20033;-64
2021/08/04 10:52:34;;;;;;;15.27;9.52;;;;;;;;;;5043630;28;20418;-64
2021/08/04 10:55:07;;;;;;;18.60;12.40;;;;;;;;;;5041808;28;20118;-63
2021/08/04 10:57:35;;;;;;;17.23;12.00;;;;;;;;;;5043187;28;20017;-63
2021/08/04 11:00:21;;;;;;;19.02;10.95;;;;;;;;;;5043844;28;20025;-63
2021/08/04 11:02:47;;;;;;;20.15;12.70;;;;;;;;;;5042587;28;20033;-64
2021/08/04 11:05:13;;;;;;;27.02;15.25;;;;;;;;;;5039987;28;20055;-63
2021/08/04 11:07:59;;;;;;;18.02;12.85;;;;;;;;;;5050109;28;20021;-64
2021/08/04 11:10:38;;;;;;;20.25;13.30;;;;;;;;;;5046742;28;20017;-65
2021/08/04 11:13:04;;;;;;;24.52;14.27;;;;;;;;;;5046007;28;20052;-63
2021/08/04 11:15:31;;;;;;;19.45;13.38;;;;;;;;;;5045921;28;20078;-64
2021/08/04 11:17:57;;;;;;;22.27;15.35;;;;;;;;;;5042990;28;20484;-63
2021/08/04 11:20:23;;;;;;;18.58;11.75;;;;;;;;;;5049749;28;20013;-64
2021/08/04 11:22:52;;;;;;;20.60;13.93;;;;;;;;;;5042404;28;20613;-64
2021/08/04 11:25:24;;;;;;;19.58;13.00;;;;;;;;;;5036054;28;20021;-63
2021/08/04 11:27:54;;;;;;;13.68;10.60;;;;;;;;;;5045914;28;20056;-63
2021/08/04 11:30:29;;;;;;;16.23;10.82;;;;;;;;;;5041713;28;20024;-63
2021/08/04 11:33:13;;;;;;;17.88;10.60;;;;;;;;;;5042889;28;20028;-64
2021/08/04 11:35:40;;;;;;;14.85;8.60;;;;;;;;;;5041050;28;20035;-64
2021/08/04 11:38:06;;;;;;;14.43;7.20;;;;;;;;;;5045075;28;20052;-64
2021/08/04 11:40:32;;;;;;;11.95;6.55;;;;;;;;;;5043076;28;20017;-64
2021/08/04 11:42:58;;;;;;;12.27;7.10;;;;;;;;;;5043763;28;20079;-64
2021/08/04 11:45:24;;;;;;;10.18;6.18;;;;;;;;;;5041749;28;20036;-64
2021/08/04 11:47:50;;;;;;;12.27;7.85;;;;;;;;;;5044492;28;20040;-64
2021/08/04 11:50:16;;;;;;;12.57;7.38;;;;;;;;;;5043834;28;20520;-63
2021/08/04 11:52:43;;;;;;;14.45;7.18;;;;;;;;;;5044808;28;20048;-64
2021/08/04 11:55:10;;;;;;;8.77;5.68;;;;;;;;;;5045170;28;20131;-63
2021/08/04 11:57:43;;;;;;;10.98;6.65;;;;;;;;;;5046072;28;20101;-63
2021/08/04 12:00:24;;;;;;;10.93;5.97;;;;;;;;;;5046479;28;20071;-64
2021/08/04 12:02:50;;;;;;;9.93;7.43;;;;;;;;;;5045175;28;20597;-64
2021/08/04 12:05:18;;;;;;;11.45;6.72;;;;;;;;;;5044497;28;20509;-63
2021/08/04 12:07:44;;;;;;;11.70;6.78;;;;;;;;;;5043280;28;20036;-63
2021/08/04 12:10:11;;;;;;;10.73;6.97;;;;;;;;;;5044501;28;20082;-63
2021/08/04 12:12:39;;;;;;;12.68;8.43;;;;;;;;;;5041598;28;20029;-63
2021/08/04 12:15:14;;;;;;;11.88;6.45;;;;;;;;;;5043088;28;20471;-64
2021/08/04 12:17:40;;;;;;;11.70;7.82;;;;;;;;;;5041971;28;20052;-64
2021/08/04 12:20:13;;;;;;;13.57;7.22;;;;;;;;;;5042073;28;20029;-63
2021/08/04 12:22:40;;;;;;;17.73;9.25;;;;;;;;;;5042277;28;20035;-64
2021/08/04 12:25:07;;;;;;;14.07;8.02;;;;;;;;;;5046478;28;20025;-63
2021/08/04 12:27:33;;;;;;;15.52;8.68;;;;;;;;;;5043442;28;20029;-63
2021/08/04 12:30:10;;;;;;;13.68;9.52;;;;;;;;;;5042436;28;20020;-64
2021/08/04 12:32:51;;;;;;;12.32;7.57;;;;;;;;;;5042267;28;20033;-64
2021/08/04 12:35:21;;;;;;;13.77;8.63;;;;;;;;;;5038874;28;20020;-63
2021/08/04 12:37:48;;;;;;;14.93;9.07;;;;;;;;;;5040280;28;20531;-63
2021/08/04 12:40:14;;;;;;;12.38;9.10;;;;;;;;;;5039360;28;20060;-64
2021/08/04 12:42:40;;;;;;;13.02;8.43;;;;;;;;;;5042295;28;20040;-64
2021/08/04 12:45:27;;;;;;;13.50;7.82;;;;;;;;;;5040170;28;20024;-64
2021/08/04 12:47:54;;;;;;;13.32;8.48;;;;;;;;;;5042912;28;20053;-64
2021/08/04 12:50:21;;;;;;;13.77;9.25;;;;;;;;;;5040141;28;20025;-63
2021/08/04 12:52:47;;;;;;;14.68;9.27;;;;;;;;;;5042682;28;20033;-64
2021/08/04 12:55:16;;;;;;;18.90;10.30;;;;;;;;;;5039358;28;20108;-64
2021/08/04 12:57:43;;;;;;;16.13;9.27;;;;;;;;;;5041398;28;20029;-64
2021/08/04 13:00:09;;;;;;;13.90;9.00;;;;;;;;;;5040228;28;20020;-64
2021/08/04 13:02:39;;;;;;;15.93;9.52;;;;;;;;;;5043098;28;20485;-64
2021/08/04 13:05:06;;;;;;;15.00;9.80;;;;;;;;;;5035929;28;20025;-63
2021/08/04 13:07:45;;;;;;;14.65;9.27;;;;;;;;;;5042957;28;20028;-63
2021/08/04 13:10:14;;;;;;;12.55;9.30;;;;;;;;;;5040003;28;20029;-63
2021/08/04 13:12:40;;;;;;;16.08;9.48;;;;;;;;;;5040828;28;20096;-64
2021/08/04 13:15:11;;;;;;;14.65;9.32;;;;;;;;;;5038845;28;20506;-63
2021/08/04 13:17:59;;;;;;;18.58;10.05;;;;;;;;;;5038691;28;20102;-63
2021/08/04 13:20:29;;;;;;;16.35;8.27;;;;;;;;;;5043072;28;20025;-65
2021/08/04 13:23:07;;;;;;;16.27;9.88;;;;;;;;;;5038941;28;20562;-64
2021/08/04 13:25:46;;;;;;;12.65;8.27;;;;;;;;;;5039617;28;20025;-63
2021/08/04 13:28:20;;;;;;;13.18;9.10;;;;;;;;;;5043629;28;20509;-63
2021/08/04 13:30:49;;;;;;;12.13;8.13;;;;;;;;;;5037737;28;20039;-63
2021/08/04 13:33:15;;;;;;;11.27;8.30;;;;;;;;;;5039768;28;20274;-63
2021/08/04 13:35:45;;;;;;;15.18;8.98;;;;;;;;;;5032955;28;20040;-63
2021/08/04 13:38:11;;;;;;;11.10;8.30;;;;;;;;;;5041150;28;20047;-63
2021/08/04 13:40:38;;;;;;;12.75;8.63;;;;;;;;;;5042244;28;20040;-63
2021/08/04 13:43:05;;;;;;;16.25;7.82;;;;;;;;;;5045888;28;20446;-63
2021/08/04 13:45:31;;;;;;;13.30;9.60;;;;;;;;;;5046248;28;20377;-63
2021/08/04 13:47:57;;;;;;;16.15;9.43;;;;;;;;;;5050505;28;20043;-63
2021/08/04 14:05:35;;;;;;;10.75;6.78;;;;;;;;;;5122883;27;20781;-64
2021/08/04 14:08:01;;;;;;;10.45;6.57;;;;;;;;;;5128938;27;20030;-65
2021/08/04 14:10:27;;;;;;;12.13;7.63;;;;;;;;;;5125172;27;20042;-64
2021/08/04 14:12:54;;;;;;;13.80;9.02;;;;;;;;;;5127184;27;20027;-65
2021/08/04 14:15:21;;;;;;;12.63;9.23;;;;;;;;;;5117984;28;20028;-64
2021/08/04 14:17:47;;;;;;;13.70;8.25;;;;;;;;;;5129168;27;20027;-64
2021/08/04 14:20:13;;;;;;;10.95;7.22;;;;;;;;;;5125020;27;20046;-64
2021/08/04 14:22:40;;;;;;;10.93;6.70;;;;;;;;;;5129504;27;20044;-65
2021/08/04 14:25:07;;;;;;;10.27;6.47;;;;;;;;;;5128226;27;20038;-64
2021/08/04 14:27:34;;;;;;;13.02;7.63;;;;;;;;;;5129123;27;20016;-64
2021/08/04 14:30:00;;;;;;;13.68;7.53;;;;;;;;;;5127845;27;20023;-64
2021/08/04 14:32:26;;;;;;;13.75;8.80;;;;;;;;;;5130800;27;20036;-64
2021/08/04 14:34:52;;;;;;;13.82;9.23;;;;;;;;;;5127627;27;20035;-65
2021/08/04 14:37:18;;;;;;;16.65;7.97;;;;;;;;;;5131742;27;20027;-65
2021/08/04 14:39:46;;;;;;;10.73;7.10;;;;;;;;;;5133107;27;20072;-65
2021/08/04 14:42:12;;;;;;;12.02;6.78;;;;;;;;;;5128654;27;20106;-65
2021/08/04 14:44:38;;;;;;;12.25;6.50;;;;;;;;;;5125816;27;20031;-65